Historyczne dane pomiarowe

Dodano dane terminowe – wersja testowa.

Dane z okresu 1951-2019

Wersja bazy: 1.34 [2019-03-16, lista zmian], aktualizacja planowana na 2019-04-15

Dane meteo z obszaru Polski uzyskane na podstawie danych udostępnionych przez Instytut Meteorologii i Gospodarki Wodnej – Państwowy Instytut Badawczy.

 

Wybierz Datę:    

       

TemperaturaWilgotnośćWiatrCiśnienieOpadyŚniegCzas trwania zjawisk
 Stacja t tx tn tng RH VA  wxwx mslp ppp RRR   cm mm wxwxwxwxwxwxwx
2007-06-13 16.9 28.2 6.0--- 3.0----- 2.8------------
2007-06-14 18.6 27.5 11.1--- 2.7----- 0.8------------
2007-06-15 20.1 29.5 9.9--- 2.7----- 0.0------------
2007-06-16 21.1 28.1 12.4--- 4.7----- 4.9------------
2007-06-17 17.9 24.5 7.1--- 1.3----- 0.0------------
2007-06-18 17.7 27.6 7.5--- 1.7----- 0.6------------
2007-06-19 17.6 25.9 9.0--- 3.0----- 0.0------------
2007-06-20 17.2 25.2 7.5--- 0.7----- 0.0------------
2007-06-21 19.8 29.8 7.9--- 2.7----- 4.4------------
2007-06-22 20.0 26.1 13.6--- 2.0----- 6.6------------
2007-06-23 17.3 23.6 12.9--- 4.7----- 2.9------------
2007-06-24 17.3 24.0 7.2--- 1.0----- 0.2------------
2007-06-25 16.9 23.6 7.9--- 4.0----- 1.1------------
2007-06-26 17.1 21.3 10.6--- 4.7----- 2.0------------
2007-06-27 15.5 21.6 6.7--- 1.3----- 0.0------------
2007-06-28 15.6 21.9 8.1--- 1.0----- 0.0------------
2007-06-29 13.7 19.5 4.5--- 3.3----- 1.3------------
2007-06-30 15.8 24.0 6.0--- 2.0----- 0.8------------
2007-07-01 17.5 23.5 6.9--- 2.0----- 0.0------------
2007-07-02 20.5 29.7 8.1--- 2.0----- 3.8------------
2007-07-03 20.0 25.4 13.8--- 2.3----- 0.8------------
2007-07-04 16.0 22.4 9.5--- 5.3----- 13.7------------
2007-07-05 14.1 17.9 10.4--- 3.0----- 2.1------------
2007-07-06 15.8 19.4 10.6--- 3.7----- 0.6------------
2007-07-07 17.7 22.0 12.1--- 2.0----- 0.0------------
2007-07-08 17.5 23.5 8.9--- 1.0----- 0.0------------
2007-07-09 15.9 26.1 4.1--- 6.0----- 12.7------------
2007-07-10 15.1 18.6 11.5--- 5.0----- 3.4------------
2007-07-11 13.9 18.0 8.3--- 1.3----- 0.0------------
2007-07-12 14.1 21.6 3.5--- 1.3----- 0.0------------
165.2 ms

 

Źródłem pochodzenia danych jest Instytut Meteorologii i Gospodarki Wodnej – Państwowy Instytut Badawczy. Dane Instytutu Meteorologii i Gospodarki Wodnej – Państwowego Instytutu Badawczego zostały przetworzone.

Dane źródłowe można odnaleźć na stronie https://dane.imgw.pl